Flight Track Log - Related Links

Times and Time Zones

All times are in EDT time to prevent confusion due to time zone crossing. See the VNR139 flight status page for this flight to view local times or setup timezone preferences in your user account.

Time Position Orientation Groundspeed Altitude Reporting Facility
EDT Latitude Longitude Course Direction KTS MPH feet Rate Location/Type
Thu 11:27:01 AM 37.9714 -84.6736 167° South 162 186 4,200  Level Indianapolis Center
Thu 11:28:03 AM 37.9214 -84.6728 179° South 190 219 5,900 1,790 Climbing Indianapolis Center
Thu 11:29:05 AM 37.8678 -84.6486 160° South 204 235 7,900 1,951 Climbing Indianapolis Center
Thu 11:30:06 AM 37.8014 -84.6197 161° South 215 247 9,900 1,171 Climbing Indianapolis Center
Thu 11:31:00 AM 37.5877 -84.4480 167° South  Level FlightAware Approximate
Thu 11:31:08 AM 37.7325 -84.5931 163° South 252 290 10,300  Level Indianapolis Center
Thu 11:32:00 AM 37.4977 -84.4210 167° South  Level FlightAware Approximate
Thu 11:32:09 AM 37.6611 -84.5644 162° South 265 305 11,800  Level Indianapolis Center
Thu 11:33:11 AM 37.5919 -84.5383 163° South 260 299 13,800 1,935 Climbing Indianapolis Center
Thu 11:34:13 AM 37.5269 -84.5131 163° South 246 283 15,800 1,645 Climbing Indianapolis Center
Thu 11:35:15 AM 37.4600 -84.4867 163° South 251 289 17,200 1,366 Climbing Indianapolis Center
Thu 11:36:16 AM 37.3903 -84.4586 162° South 260 299 18,600 1,512 Climbing Indianapolis Center
Thu 11:37:18 AM 37.3039 -84.4267 164° South 274 315 20,300 1,500 Climbing Indianapolis Center
Thu 11:38:20 AM 37.2303 -84.3983 163° South 276 318 21,700 1,403 Climbing Indianapolis Center
Thu 11:39:22 AM 37.1553 -84.3697 163° South 281 323 23,200 1,415 Climbing Indianapolis Center
Thu 11:40:23 AM 37.0808 -84.3403 162° South 281 323 24,600 1,366 Climbing Indianapolis Center
Thu 11:41:25 AM 37.0089 -84.3131 163° South 274 315 26,000 1,306 Climbing Indianapolis Center
Thu 11:42:27 AM 36.9375 -84.2847 162° South 270 311 27,300 1,210 Climbing Indianapolis Center
Thu 11:43:29 AM 36.8531 -84.2531 163° South 272 313 28,500 829 Climbing Indianapolis Center
Thu 11:44:30 AM 36.7775 -84.2244 163° South 280 322 29,000 244 Climbing Indianapolis Center
Thu 11:45:32 AM 36.6953 -84.1931 163° South 302 348 29,000  Level Indianapolis Center
Thu 11:46:34 AM 36.6064 -84.1592 163° South 326 375 29,000  Level Indianapolis Center
Thu 11:47:35 AM 36.5164 -84.1236 162° South 336 387 29,000  Level Indianapolis Center
Thu 11:48:37 AM 36.4119 -84.0839 163° South 342 394 29,000  Level Indianapolis Center
Thu 11:49:39 AM 36.3183 -84.0486 163° South 347 399 29,000  Level Indianapolis Center
Thu 11:50:40 AM 36.2269 -84.0142 163° South 344 396 29,000  Level Indianapolis Center
Thu 11:51:42 AM 36.1333 -83.9797 163° South 347 399 29,000  Level Indianapolis Center
Thu 11:52:36 AM 36.0542 -83.9514 164° South 341 392 29,000  Level Atlanta Center
Thu 11:53:36 AM 35.9622 -83.9156 162° South 341 392 29,000  Level Atlanta Center
Thu 11:54:36 AM 35.8664 -83.8800 163° South 341 392 29,000  Level Atlanta Center
Thu 11:55:36 AM 35.7744 -83.8392 160° South 346 398 29,000  Level Atlanta Center
Thu 11:56:36 AM 35.6825 -83.7958 159° South 346 398 29,000  Level Atlanta Center
Thu 11:57:36 AM 35.5928 -83.7553 160° South 346 398 29,000  Level Atlanta Center
Thu 11:58:36 AM 35.4989 -83.7122 160° South 346 398 29,000  Level Atlanta Center
Thu 11:59:36 AM 35.4069 -83.6719 160° South 346 398 29,000  Level Atlanta Center
Thu 12:00:36 PM 35.3150 -83.6289 159° South 351 404 29,000  Level Atlanta Center
Thu 12:01:36 PM 35.2208 -83.5861 160° South 351 404 29,000  Level Atlanta Center
Thu 12:02:36 PM 35.1206 -83.5436 161° South 351 404 29,000  Level Atlanta Center
Thu 12:03:36 PM 35.0286 -83.5036 160° South 351 404 29,000  Level Atlanta Center
Thu 12:04:36 PM 34.9386 -83.4611 159° South 351 404 29,000  Level Atlanta Center
Thu 12:05:36 PM 34.8467 -83.4211 160° South 351 404 29,000  Level Atlanta Center
Thu 12:06:36 PM 34.7547 -83.3814 160° South 351 404 29,000  Level Atlanta Center
Thu 12:07:36 PM 34.6647 -83.3392 159° South 351 404 29,000  Level Atlanta Center
Thu 12:08:36 PM 34.5725 -83.2972 159° South 351 404 29,000  Level Atlanta Center
Thu 12:09:36 PM 34.4825 -83.2550 159° South 351 404 29,000  Level Atlanta Center
Thu 12:10:36 PM 34.3883 -83.2156 161° South 350 403 29,000  Level Atlanta Center
Thu 12:11:36 PM 34.3006 -83.1764 160° South 351 404 29,000  Level Atlanta Center
Thu 12:12:36 PM 34.2083 -83.1369 161° South 351 404 29,000  Level Atlanta Center
Thu 12:13:36 PM 34.1183 -83.0978 160° South 351 404 29,000  Level Atlanta Center
Thu 12:14:36 PM 34.0261 -83.0589 161° South 351 404 29,000  Level Atlanta Center
Thu 12:15:36 PM 33.9444 -83.0197 158° South 345 397 29,000  Level Atlanta Center
Thu 12:16:36 PM 33.8522 -82.9808 161° South 350 403 29,000  Level Atlanta Center
Thu 12:17:36 PM 33.7539 -82.9419 162° South 350 403 29,000  Level Atlanta Center
Thu 12:18:36 PM 33.6700 -82.9031 159° South 355 409 29,000  Level Atlanta Center
Thu 12:19:36 PM 33.5778 -82.8644 161° South 355 409 29,000  Level Atlanta Center
Thu 12:20:36 PM 33.4897 -82.8258 160° South 349 402 29,000 150 Level Atlanta Center
Thu 12:21:36 PM 33.3892 -82.7850 161° South 349 402 29,300 350 Climbing Atlanta Center
Thu 12:22:36 PM 33.3117 -82.7536 161° South 342 394 29,700 350 Climbing Atlanta Center
Thu 12:23:36 PM 33.2256 -82.7153 160° South 337 388 30,000 150 Climbing Atlanta Center
Thu 12:24:36 PM 33.1375 -82.6769 160° South 337 388 30,000  Level Atlanta Center
Thu 12:25:36 PM 33.0472 -82.6386 160° South 337 388 30,000  Level Atlanta Center
Thu 12:27:33 PM 32.8636 -82.6181 175° South 333 383 30,000  Level Jacksonville Center
Thu 12:28:33 PM 32.7736 -82.5911 166° South 333 383 30,000  Level Jacksonville Center
Thu 12:29:33 PM 32.6775 -82.5619 166° South 338 389 30,000  Level Jacksonville Center
Thu 12:30:33 PM 32.5856 -82.5325 165° South 338 389 30,000  Level Jacksonville Center
Thu 12:31:33 PM 32.4936 -82.5008 164° South 338 389 30,000  Level Jacksonville Center
Thu 12:32:33 PM 32.3933 -82.4619 162° South 344 396 30,000  Level Jacksonville Center
Thu 12:33:33 PM 32.3119 -82.4353 165° South 339 390 30,000  Level Jacksonville Center
Thu 12:34:33 PM 32.2200 -82.4333 179° South 339 390 30,000  Level Jacksonville Center
Thu 12:35:33 PM 32.1303 -82.4436 186° South 328 377 30,000  Level Jacksonville Center
Thu 12:36:33 PM 32.0342 -82.4539 185° South 328 377 30,000  Level Jacksonville Center
Thu 12:37:33 PM 31.9467 -82.4642 186° South 328 377 30,000  Level Jacksonville Center
Thu 12:38:33 PM 31.8528 -82.4744 185° South 328 377 30,000  Level Jacksonville Center
Thu 12:39:33 PM 31.7608 -82.4819 184° South 333 383 30,000  Level Jacksonville Center
Thu 12:40:33 PM 31.6711 -82.4922 186° South 333 383 30,000  Level Jacksonville Center
Thu 12:41:33 PM 31.5792 -82.5025 185° South 333 383 30,000  Level Jacksonville Center
Thu 12:42:33 PM 31.4875 -82.5078 183° South 333 383 30,000  Level Jacksonville Center
Thu 12:44:33 PM 31.2911 -82.5231 184° South 333 383 30,000  Level Jacksonville Center
Thu 12:45:33 PM 31.1972 -82.5258 181° South 333 383 30,000  Level Jacksonville Center
Thu 12:46:33 PM 31.1075 -82.5286 182° South 333 383 30,000  Level Jacksonville Center
Thu 12:47:33 PM 31.0136 -82.5339 183° South 328 377 30,000  Level Jacksonville Center
Thu 12:48:33 PM 30.9217 -82.5389 183° South 328 377 30,000  Level Jacksonville Center
Thu 12:49:33 PM 30.8361 -82.5417 182° South 335 386 30,000  Level Jacksonville Center
Thu 12:50:33 PM 30.7422 -82.5444 181° South 340 391 30,000  Level Jacksonville Center
Thu 12:51:33 PM 30.6503 -82.5472 181° South 340 391 30,000  Level Jacksonville Center
Thu 12:52:33 PM 30.5583 -82.5619 188° South 340 391 30,000  Level Jacksonville Center
Thu 12:53:33 PM 30.4644 -82.5842 192° South 340 391 30,000 -350 Level Jacksonville Center
Thu 12:54:33 PM 30.3728 -82.6036 190° South 340 391 29,300 -500 Descending Jacksonville Center
Thu 12:55:33 PM 30.2808 -82.6281 193° South 340 391 29,000 -150 Descending Jacksonville Center
Thu 12:56:33 PM 30.1889 -82.6450 189° South 340 391 29,000  Level Jacksonville Center
Thu 12:57:33 PM 30.0972 -82.6692 193° South 340 391 29,000  Level Jacksonville Center
Thu 12:58:33 PM 30.0011 -82.6911 191° South 340 391 29,000  Level Jacksonville Center
Thu 12:59:33 PM 29.9094 -82.7056 188° South 340 391 29,000  Level Jacksonville Center
Thu 01:00:33 PM 29.8156 -82.7203 188° South 340 391 29,000  Level Jacksonville Center
Thu 01:01:33 PM 29.7236 -82.7300 185° South 334 384 29,000  Level Jacksonville Center
Thu 01:02:33 PM 29.6339 -82.7086 168° South 334 384 29,000  Level Jacksonville Center
Thu 01:03:33 PM 29.5481 -82.6658 157° South 324 373 29,000  Level Jacksonville Center
Thu 01:04:33 PM 29.4561 -82.6397 166° South 330 380 29,000  Level Jacksonville Center
Thu 01:05:33 PM 29.3664 -82.6186 168° South 336 387 29,000  Level Jacksonville Center
Thu 01:06:33 PM 29.2744 -82.6142 178° South 336 387 29,000  Level Jacksonville Center
Thu 01:07:33 PM 29.1847 -82.6167 181° South 331 381 29,000  Level Jacksonville Center
Thu 01:08:33 PM 29.0950 -82.6217 183° South 326 375 29,000  Level Jacksonville Center
Thu 01:09:33 PM 29.0033 -82.6292 184° South 326 375 29,000  Level Jacksonville Center
Thu 01:10:33 PM 28.9136 -82.6389 185° South 331 381 29,000  Level Jacksonville Center
Thu 01:11:33 PM 28.8258 -82.6556 189° South 331 381 29,000  Level Jacksonville Center
Thu 01:12:33 PM 28.7383 -82.6772 192° South 331 381 29,000  Level Jacksonville Center
Thu 01:13:33 PM 28.6506 -82.7008 193° South 331 381 29,000  Level Jacksonville Center
Thu 01:14:33 PM 28.5650 -82.7247 194° South 331 381 29,000  Level Jacksonville Center
Thu 01:15:33 PM 28.4817 -82.7508 195° South 325 374 29,000  Level Jacksonville Center
Thu 01:16:33 PM 28.3983 -82.7744 194° South 320 368 29,000  Level Jacksonville Center
Thu 01:18:22 PM 28.2422 -82.8039 189° South 314 361 29,000  Level Miami Center
Thu 01:19:22 PM 28.1528 -82.7969 176° South 319 367 29,000  Level Miami Center
Thu 01:20:22 PM 28.0636 -82.7853 173° South 319 367 29,000  Level Miami Center
Thu 01:21:22 PM 27.9725 -82.7664 170° South 328 377 29,000  Level Miami Center
Thu 01:22:22 PM 27.8856 -82.7525 172° South 329 379 29,000 -450 Level Miami Center
Thu 01:23:22 PM 27.7903 -82.7358 171° South 334 384 28,100 -1,300 Descending Miami Center
Thu 01:24:22 PM 27.6908 -82.7189 171° South 328 377 26,400 -1,750 Descending Miami Center
Thu 01:25:22 PM 27.6225 -82.7061 171° South 305 351 24,600 -1,200 Descending Miami Center
Thu 01:26:22 PM 27.5439 -82.6903 170° South 297 342 24,000 -300 Descending Miami Center
Thu 01:27:22 PM 27.4594 -82.6603 163° South 290 334 24,000  Level Miami Center
Thu 01:28:22 PM 27.3814 -82.6331 163° South 302 348 24,000  Level Miami Center
Thu 01:29:22 PM 27.3014 -82.6008 160° South 297 342 24,000  Level Miami Center
Thu 01:30:22 PM 27.2414 -82.5817 164° South 297 342 24,000  Level Miami Center
Thu 01:31:22 PM 27.1817 -82.5111 134° Southeast 285 328 24,000  Level Miami Center
Thu 01:32:22 PM 27.1369 -82.4294 122° Southeast 284 327 24,000  Level Miami Center
Thu 01:33:22 PM 27.0856 -82.3500 126° Southeast 296 341 24,000  Level Miami Center
Thu 01:34:22 PM 27.0425 -82.2736 122° Southeast 304 350 24,000  Level Miami Center
Thu 01:35:22 PM 26.9853 -82.1894 127° Southeast 304 350 24,000  Level Miami Center
Thu 01:36:22 PM 26.9419 -82.1128 122° Southeast 293 337 24,000 -300 Level Miami Center
Thu 01:37:22 PM 26.9136 -82.0300 111° Southeast 288 331 23,400 -750 Descending Miami Center
Thu 01:38:22 PM 26.8981 -81.9456 102° East 281 323 22,500 -850 Descending Miami Center
Thu 01:39:22 PM 26.8797 -81.8656 104° East 274 315 21,700 -1,050 Descending Miami Center
Thu 01:40:22 PM 26.8658 -81.7836 101° East 269 310 20,400 -1,150 Descending Miami Center
Thu 01:41:22 PM 26.8497 -81.7061 103° East 258 297 19,400 -1,050 Descending Miami Center
Thu 01:42:22 PM 26.8314 -81.6331 106° East 251 289 18,300 -1,100 Descending Miami Center
Thu 01:43:22 PM 26.8064 -81.5694 114° Southeast 231 266 17,200 -650 Descending Miami Center
Thu 01:44:22 PM 26.7789 -81.5078 117° Southeast 233 268 17,000 -650 Descending Miami Center
Thu 01:45:22 PM 26.7417 -81.4342 120° Southeast 257 296 15,900 -1,000 Descending Miami Center
Thu 01:46:22 PM 26.7044 -81.3536 117° Southeast 274 315 15,000 -450 Descending Miami Center
Thu 01:47:22 PM 26.6733 -81.2783 115° Southeast 260 299 15,000 -600 Level Miami Center
Thu 01:48:22 PM 26.6544 -81.2194 110° East 239 275 13,800 -1,150 Descending Miami Center
Thu 01:49:22 PM 26.6333 -81.1536 110° East 228 262 12,700 -900 Descending Miami Center
Thu 01:50:22 PM 26.6128 -81.0669 105° East 250 288 12,000 -700 Descending Miami Center
Thu 01:51:22 PM 26.6031 -80.9758 97° East 277 319 11,300 -700 Descending Miami Center
Thu 01:52:22 PM 26.6139 -80.8833 83° East 296 341 10,600 -600 Descending Miami Center
Thu 01:53:22 PM 26.6267 -80.8003 80° East 301 346 10,100 -500 Descending Miami Center
Thu 01:54:22 PM 26.6478 -80.7081 76° East 293 337 9,600 -750 Descending Miami Center
Thu 01:55:22 PM 26.6736 -80.6019 75° East 307 353 8,600 -1,250 Descending Miami Center
Thu 01:56:22 PM 26.6964 -80.5236 72° East 300 345 7,100 -1,800 Descending Miami Center
Thu 01:57:22 PM 26.7028 -80.4400 85° East 258 297 5,000 -2,000 Descending Miami Center
Thu 01:58:22 PM 26.6939 -80.3769 99° East 217 250 3,100 -1,050 Descending Miami Center
Thu 01:59:22 PM 26.6933 -80.3142 91° East 203 234 2,900 -350 Descending Miami Center
Thu 02:00:22 PM 26.7117 -80.2450 73° East 211 243 2,400 -500 Descending Miami Center
Thu 02:01:22 PM 26.7192 -80.1825 82° East 226 260 1,900 -500 Descending Miami Center
Thu 02:03:00 PM 26.6832 -80.0956 50° Northeast  Level Estimated
Thu 02:10:00 PM 26.6832 -80.0956 50° Northeast  Level Estimated
Thu 02:11:00 PM 26.6832 -80.0956 50° Northeast  Level Estimated
Thu 02:12:00 PM 26.6832 -80.0956 50° Northeast  Level Estimated

Login

Don't have an account? Register now (free) for customized features, flight alerts, and more!